San Diego, California
Traffic Map
Current Weather Conditions
San Diego, California
Clear
Clear
22°
Feels Like: 22°
Wind Chill: 22° Ceiling: Unl
Heat Index: 22° Visibility: 10mi
Dew Point: Wind: 7mph
Humidity: 27% Direction: 310° (NW)
Pressure: 30.22in Gusts: 0mph
Raw Report DataKSAN 052351Z 31006KT 10SM CLR 22/02 A3022 RMK AO2 SLP232 T02220022 10228 20189 56010
Traffic Incident Summary
Active as of:
Severity:
Category:
InformationThere was an issue retrieving the traffic information for this location. Please try a different location or try again shortly.
Advertisements
Track Severe Weather on mobile